Time;durP1;ratioP1;P1;durP2;ratioP2;P2;SDS_P1;SDS_P2;PMS_P1;PMS_P2;Temp;Humidity;BMP_temperature;BMP_pressure;BME280_temperature;BME280_humidity;BME280_pressure;Samples;Min_cycle;Max_cycle;Signal;HPM_P1;HPM_P2
2023/04/10 00:01:02;;;;;;;23.55;12.73;;;5.50;68.50;;;;;;4953944;28;20035;-61
2023/04/10 00:03:28;;;;;;;22.75;12.15;;;5.40;68.60;;;;;;4955301;28;20049;-62
2023/04/10 00:05:54;;;;;;;27.27;13.40;;;5.40;68.80;;;;;;4959229;28;20051;-62
2023/04/10 00:08:22;;;;;;;23.92;12.98;;;5.30;68.90;;;;;;4955490;28;20419;-62
2023/04/10 00:10:48;;;;;;;20.08;11.82;;;5.30;69.00;;;;;;4954606;28;20089;-63
2023/04/10 00:13:14;;;;;;;19.73;11.15;;;5.20;69.00;;;;;;4955118;28;20415;-62
2023/04/10 00:15:40;;;;;;;16.92;10.70;;;5.20;69.00;;;;;;4955082;28;20050;-62
2023/04/10 00:18:06;;;;;;;18.40;10.05;;;5.10;69.10;;;;;;4955701;28;20491;-62
2023/04/10 00:20:31;;;;;;;17.42;10.75;;;5.00;69.10;;;;;;4954897;28;20503;-61
2023/04/10 00:22:57;;;;;;;16.40;11.07;;;5.00;69.10;;;;;;4956917;28;20438;-63
2023/04/10 00:25:22;;;;;;;17.00;10.63;;;4.90;69.30;;;;;;4956736;28;20103;-62
2023/04/10 00:27:48;;;;;;;15.43;9.90;;;4.90;69.40;;;;;;4953825;28;20329;-62
2023/04/10 00:30:14;;;;;;;15.73;10.18;;;4.80;69.60;;;;;;4955412;28;20038;-62
2023/04/10 00:32:40;;;;;;;13.80;9.20;;;4.80;69.80;;;;;;4955001;28;20039;-62
2023/04/10 00:35:07;;;;;;;13.68;9.25;;;4.70;69.80;;;;;;4955410;28;20038;-61
2023/04/10 00:37:33;;;;;;;14.48;9.20;;;4.70;70.00;;;;;;4960486;28;20051;-62
2023/04/10 00:39:58;;;;;;;11.45;7.57;;;4.70;70.10;;;;;;4959781;28;20970;-61
2023/04/10 00:42:24;;;;;;;14.13;8.80;;;4.60;70.10;;;;;;4960270;28;20035;-61
2023/04/10 00:44:50;;;;;;;13.02;8.68;;;4.70;70.20;;;;;;4958608;28;20039;-62
2023/04/10 00:47:16;;;;;;;12.02;8.13;;;4.60;70.10;;;;;;4958809;28;20035;-62
2023/04/10 00:49:42;;;;;;;11.48;8.07;;;4.60;70.20;;;;;;4958304;28;20046;-62
2023/04/10 00:52:08;;;;;;;11.65;8.00;;;4.50;70.30;;;;;;4955185;28;20129;-63
2023/04/10 00:54:35;;;;;;;12.85;8.73;;;4.50;70.40;;;;;;4956118;28;20105;-63
2023/04/10 00:57:02;;;;;;;12.68;8.60;;;4.40;70.50;;;;;;4954864;28;20089;-63
2023/04/10 00:59:28;;;;;;;12.48;8.63;;;4.40;70.50;;;;;;4957143;28;20027;-60
2023/04/10 01:01:53;;;;;;;13.13;8.65;;;4.40;70.60;;;;;;4959653;28;20097;-62
2023/04/10 01:04:20;;;;;;;16.05;9.13;;;4.30;70.80;;;;;;4954948;28;20054;-62
2023/04/10 01:07:22;;;;;;;13.38;8.70;;;4.30;70.90;;;;;;4957269;28;20031;-62
2023/04/10 01:09:47;;;;;;;13.13;8.38;;;4.20;71.50;;;;;;4956561;28;20253;-62
2023/04/10 01:12:35;;;;;;;13.52;8.90;;;4.20;70.90;;;;;;4952645;28;20510;-62
2023/04/10 01:15:10;;;;;;;14.00;8.63;;;4.20;71.80;;;;;;4955621;28;20081;-62
2023/04/10 01:17:59;;;;;;;13.88;8.93;;;4.10;71.30;;;;;;4955670;28;20160;-60
2023/04/10 01:20:29;;;;;;;13.23;8.73;;;4.10;71.70;;;;;;4956854;28;20039;-62
2023/04/10 01:23:20;;;;;;;13.05;8.55;;;4.10;71.20;;;;;;4955415;28;20042;-61
2023/04/10 01:26:02;;;;;;;12.25;8.73;;;4.10;71.50;;;;;;4955372;28;20034;-62
2023/04/10 01:28:39;;;;;;;13.13;8.55;;;4.10;71.50;;;;;;4953375;28;20045;-63
2023/04/10 01:31:07;;;;;;;13.70;8.73;;;4.00;71.00;;;;;;4953256;28;20035;-62
2023/04/10 01:33:44;;;;;;;15.05;9.63;;;4.00;71.20;;;;;;4952690;28;20035;-62
2023/04/10 01:36:11;;;;;;;16.85;9.02;;;4.00;71.40;;;;;;4953400;28;20093;-59
2023/04/10 01:38:41;;;;;;;14.70;9.32;;;4.00;71.30;;;;;;4955716;28;20576;-60
2023/04/10 01:41:07;;;;;;;16.55;9.55;;;4.00;71.60;;;;;;4953992;28;20039;-63
2023/04/10 01:43:33;;;;;;;16.92;10.45;;;3.90;71.80;;;;;;4952975;28;20050;-60
2023/04/10 01:46:01;;;;;;;18.25;11.15;;;3.90;72.20;;;;;;4955186;28;20058;-61
2023/04/10 01:48:27;;;;;;;19.30;10.82;;;3.80;73.60;;;;;;4953725;28;20057;-61
2023/04/10 01:50:55;;;;;;;16.08;10.05;;;3.90;73.80;;;;;;4956297;28;20449;-61
2023/04/10 01:53:22;;;;;;;18.40;10.40;;;3.90;73.80;;;;;;4955542;28;20098;-62
2023/04/10 01:55:49;;;;;;;15.55;10.27;;;3.90;73.60;;;;;;4954518;28;20121;-62
2023/04/10 01:58:16;;;;;;;18.65;11.65;;;3.90;73.40;;;;;;4956441;28;20776;-61
2023/04/10 02:00:42;;;;;;;16.25;10.70;;;4.00;73.60;;;;;;4953453;28;20525;-62
2023/04/10 02:03:09;;;;;;;16.30;10.43;;;3.90;74.60;;;;;;4954563;28;20047;-61
2023/04/10 02:06:01;;;;;;;18.67;10.73;;;4.00;73.60;;;;;;4955453;28;20035;-62
2023/04/10 02:08:36;;;;;;;17.70;11.52;;;4.00;74.10;;;;;;4955057;28;20031;-61
2023/04/10 02:11:16;;;;;;;17.15;10.73;;;4.00;74.30;;;;;;4953100;28;20046;-62
2023/04/10 02:13:42;;;;;;;17.20;10.30;;;4.00;74.60;;;;;;4952135;28;20039;-61
2023/04/10 02:16:09;;;;;;;18.27;11.00;;;4.00;74.10;;;;;;4952660;28;20035;-61
2023/04/10 02:18:36;;;;;;;15.73;9.57;;;4.00;74.20;;;;;;4953405;28;20039;-63
2023/04/10 02:21:03;;;;;;;14.93;9.52;;;4.00;73.90;;;;;;4953382;28;20043;-60
2023/04/10 02:23:28;;;;;;;16.65;10.23;;;4.00;73.80;;;;;;4954222;28;20506;-63
2023/04/10 02:25:57;;;;;;;16.90;10.57;;;4.00;73.60;;;;;;4954128;28;20038;-63
2023/04/10 02:28:23;;;;;;;14.85;10.38;;;4.10;73.60;;;;;;4954405;28;20388;-59
2023/04/10 02:30:48;;;;;;;17.05;10.55;;;4.00;73.40;;;;;;4951311;28;20054;-61
2023/04/10 02:33:14;;;;;;;17.15;10.43;;;4.10;73.30;;;;;;4953835;28;20083;-61
2023/04/10 02:35:39;;;;;;;18.20;11.70;;;4.10;73.30;;;;;;4953749;28;20047;-62
2023/04/10 02:38:05;;;;;;;18.48;11.00;;;4.00;73.30;;;;;;4952304;28;20039;-62
2023/04/10 02:40:30;;;;;;;15.85;9.57;;;3.90;74.00;;;;;;4955800;28;20035;-60
2023/04/10 02:42:56;;;;;;;15.57;9.50;;;3.90;74.00;;;;;;4954613;28;20101;-62
2023/04/10 02:45:21;;;;;;;14.77;9.13;;;3.90;73.90;;;;;;4952674;28;20039;-60
2023/04/10 02:47:47;;;;;;;14.40;9.82;;;3.90;73.80;;;;;;4954113;28;20053;-62
2023/04/10 02:50:13;;;;;;;14.43;9.80;;;3.90;73.70;;;;;;4954418;28;20102;-63
2023/04/10 02:52:39;;;;;;;18.95;11.05;;;3.90;73.60;;;;;;4955344;28;20038;-62
2023/04/10 02:55:05;;;;;;;19.77;12.00;;;3.90;73.60;;;;;;4954059;28;20573;-60
2023/04/10 02:57:31;;;;;;;21.90;12.52;;;3.90;74.00;;;;;;4953276;28;20031;-60
2023/04/10 02:59:56;;;;;;;21.73;12.98;;;3.90;74.50;;;;;;4953266;28;20043;-62
2023/04/10 03:02:22;;;;;;;22.67;12.65;;;3.90;75.90;;;;;;4957903;28;20058;-62
2023/04/10 03:04:48;;;;;;;19.83;11.93;;;3.90;76.00;;;;;;4953978;28;20038;-62
2023/04/10 03:07:13;;;;;;;20.75;12.77;;;3.90;75.90;;;;;;4955431;28;20041;-59
2023/04/10 03:09:39;;;;;;;21.75;12.98;;;3.90;75.90;;;;;;4955977;28;20027;-63
2023/04/10 03:12:05;;;;;;;20.88;12.25;;;3.90;75.90;;;;;;4952511;28;20499;-62
2023/04/10 03:14:30;;;;;;;21.58;12.07;;;4.00;75.90;;;;;;4951271;28;20039;-62
2023/04/10 03:16:56;;;;;;;19.42;11.70;;;4.00;75.80;;;;;;4938749;28;20035;-60
2023/04/10 03:19:21;;;;;;;26.73;13.23;;;4.10;75.60;;;;;;4953343;28;21154;-61
2023/04/10 03:21:47;;;;;;;17.35;10.68;;;4.10;75.30;;;;;;4953515;28;20028;-63
2023/04/10 03:24:12;;;;;;;20.13;11.55;;;4.10;75.10;;;;;;4956351;28;20062;-60
2023/04/10 03:26:38;;;;;;;16.60;10.55;;;4.20;74.90;;;;;;4954918;28;20036;-61
2023/04/10 03:29:04;;;;;;;16.83;10.80;;;4.10;74.60;;;;;;4956124;28;20212;-63
2023/04/10 03:31:29;;;;;;;18.48;10.75;;;4.20;74.40;;;;;;4956533;28;20043;-62
2023/04/10 03:33:55;;;;;;;16.98;11.35;;;4.20;74.10;;;;;;4956700;28;20072;-60
2023/04/10 03:36:21;;;;;;;18.73;11.25;;;4.20;73.80;;;;;;4956002;28;20035;-61
2023/04/10 03:38:46;;;;;;;18.13;10.82;;;4.20;73.70;;;;;;4957361;28;20031;-60
2023/04/10 03:41:12;;;;;;;21.75;13.07;;;4.10;73.50;;;;;;4956162;28;20054;-62
2023/04/10 03:43:38;;;;;;;22.88;14.05;;;4.10;73.30;;;;;;4953959;28;20042;-61
2023/04/10 03:46:04;;;;;;;27.55;17.27;;;4.10;73.30;;;;;;4952032;28;20046;-61
2023/04/10 03:48:31;;;;;;;26.38;17.20;;;4.10;73.20;;;;;;4957702;28;20058;-55
2023/04/10 03:50:57;;;;;;;28.83;17.13;;;4.00;73.10;;;;;;4958292;28;20431;-60
2023/04/10 03:53:23;;;;;;;25.70;15.20;;;4.00;73.10;;;;;;4958239;28;20050;-60
2023/04/10 03:55:48;;;;;;;22.25;14.10;;;3.90;73.10;;;;;;4958834;28;20046;-61
2023/04/10 03:58:14;;;;;;;22.50;13.52;;;3.90;73.10;;;;;;4958318;28;20030;-63
2023/04/10 04:00:40;;;;;;;22.40;13.85;;;3.90;73.10;;;;;;4954302;28;20039;-61
2023/04/10 04:03:05;;;;;;;20.38;12.70;;;3.90;73.30;;;;;;4954908;28;20391;-60
2023/04/10 04:05:31;;;;;;;20.77;12.95;;;3.80;73.40;;;;;;4955440;28;20416;-62
2023/04/10 04:07:56;;;;;;;19.50;11.25;;;3.70;73.40;;;;;;4958623;28;20039;-63
2023/04/10 04:10:23;;;;;;;19.02;11.38;;;3.70;73.60;;;;;;4957924;28;20047;-61
2023/04/10 04:12:49;;;;;;;18.20;10.80;;;3.60;73.60;;;;;;4957875;28;20043;-60
2023/04/10 04:15:14;;;;;;;15.52;10.13;;;3.50;73.60;;;;;;4954872;28;20043;-61
2023/04/10 04:17:41;;;;;;;16.58;10.02;;;3.50;73.80;;;;;;4952412;28;20134;-61
2023/04/10 04:20:07;;;;;;;15.35;9.77;;;3.50;73.80;;;;;;4956012;28;20039;-62
2023/04/10 04:22:32;;;;;;;14.13;9.52;;;3.40;73.70;;;;;;4955693;28;20796;-62
2023/04/10 04:24:58;;;;;;;15.57;9.85;;;3.40;73.70;;;;;;4958293;28;20039;-62
2023/04/10 04:27:24;;;;;;;16.08;10.07;;;3.40;73.70;;;;;;4952259;28;20046;-60
2023/04/10 04:29:49;;;;;;;17.83;10.10;;;3.30;73.70;;;;;;4957046;28;20067;-61
2023/04/10 04:32:15;;;;;;;18.15;10.75;;;3.30;73.90;;;;;;4954497;28;20162;-61
2023/04/10 04:34:41;;;;;;;15.43;10.50;;;3.30;73.80;;;;;;4958891;28;20038;-62
2023/04/10 04:37:06;;;;;;;16.50;10.43;;;3.30;73.90;;;;;;4961622;28;20284;-60
2023/04/10 04:39:32;;;;;;;15.13;9.77;;;3.30;73.90;;;;;;4962086;28;20493;-62
2023/04/10 04:41:57;;;;;;;16.02;10.32;;;3.30;73.80;;;;;;4961749;28;20046;-62
2023/04/10 04:44:23;;;;;;;18.02;10.63;;;3.40;73.90;;;;;;4960297;28;20126;-61
2023/04/10 04:46:49;;;;;;;17.00;10.98;;;3.40;74.00;;;;;;4958492;28;20466;-63
2023/04/10 04:49:14;;;;;;;17.80;10.95;;;3.40;74.10;;;;;;4959257;28;20058;-61
2023/04/10 04:51:40;;;;;;;16.17;10.77;;;3.30;74.00;;;;;;4958725;28;20035;-61
2023/04/10 04:54:05;;;;;;;15.73;9.82;;;3.40;74.00;;;;;;4958663;28;20044;-63
2023/04/10 04:56:31;;;;;;;17.08;10.98;;;3.30;74.00;;;;;;4957203;28;20780;-61
2023/04/10 04:58:56;;;;;;;17.75;11.25;;;3.30;74.00;;;;;;4958460;28;20392;-61
2023/04/10 05:01:23;;;;;;;17.27;10.88;;;3.30;74.20;;;;;;4960392;28;20526;-61
2023/04/10 05:03:49;;;;;;;19.90;11.60;;;3.40;74.40;;;;;;4957921;28;20054;-60
2023/04/10 05:06:16;;;;;;;20.77;12.90;;;3.30;74.50;;;;;;4959209;28;20038;-61
2023/04/10 05:08:42;;;;;;;19.77;11.95;;;3.40;74.60;;;;;;4955943;28;20070;-62
2023/04/10 05:11:07;;;;;;;19.45;12.07;;;3.40;74.60;;;;;;4957137;28;20069;-60
2023/04/10 05:13:33;;;;;;;22.27;13.18;;;3.40;74.60;;;;;;4956532;28;22216;-61
2023/04/10 05:15:59;;;;;;;19.77;12.25;;;3.40;74.60;;;;;;4956097;28;20101;-61
2023/04/10 05:18:24;;;;;;;20.27;12.55;;;3.40;74.60;;;;;;4952045;28;20086;-60
2023/04/10 05:20:50;;;;;;;22.83;12.73;;;3.50;74.80;;;;;;4953884;28;20047;-61
2023/04/10 05:23:16;;;;;;;22.00;13.05;;;3.50;75.00;;;;;;4955010;28;20043;-62
2023/04/10 05:25:41;;;;;;;25.45;13.80;;;3.50;75.30;;;;;;4955290;28;20114;-60
2023/04/10 05:28:07;;;;;;;28.17;14.93;;;3.50;75.30;;;;;;4956413;28;20137;-61
2023/04/10 05:30:33;;;;;;;26.60;15.35;;;3.50;75.30;;;;;;4955951;28;20495;-60
2023/04/10 05:32:58;;;;;;;29.98;16.95;;;3.60;75.40;;;;;;4956632;28;20035;-61
2023/04/10 05:35:24;;;;;;;29.63;16.77;;;3.60;75.50;;;;;;4935287;28;20121;-60
2023/04/10 05:37:50;;;;;;;27.45;16.20;;;3.60;75.50;;;;;;4954359;28;20498;-60
2023/04/10 05:40:15;;;;;;;30.30;16.95;;;3.70;75.70;;;;;;4955208;28;20363;-61
2023/04/10 05:42:41;;;;;;;28.17;15.77;;;3.70;75.70;;;;;;4953972;28;20060;-62
2023/04/10 05:45:07;;;;;;;25.33;15.13;;;3.70;75.80;;;;;;4956134;28;20039;-61
2023/04/10 05:47:33;;;;;;;22.77;14.73;;;3.80;76.00;;;;;;4951027;28;20041;-62
2023/04/10 05:49:59;;;;;;;22.55;13.55;;;3.80;76.20;;;;;;4955968;28;20038;-59
2023/04/10 05:52:24;;;;;;;22.13;13.93;;;3.90;76.40;;;;;;4955199;28;20039;-61
2023/04/10 05:54:51;;;;;;;24.48;14.18;;;3.90;76.60;;;;;;4954004;28;20101;-61
2023/04/10 05:57:16;;;;;;;22.92;13.90;;;4.00;76.80;;;;;;4953853;28;20066;-61
2023/04/10 05:59:42;;;;;;;22.15;13.75;;;4.00;76.90;;;;;;4956279;28;20058;-62
2023/04/10 06:02:07;;;;;;;23.20;13.85;;;4.10;77.00;;;;;;4954739;28;20368;-60
2023/04/10 06:04:33;;;;;;;22.58;13.68;;;4.20;77.10;;;;;;4953968;28;20031;-61
2023/04/10 06:07:00;;;;;;;21.58;13.05;;;4.20;77.10;;;;;;4947158;28;20403;-62
2023/04/10 06:09:25;;;;;;;21.73;13.05;;;4.30;77.20;;;;;;4947113;28;20514;-62
2023/04/10 06:11:52;;;;;;;19.73;12.80;;;4.30;77.10;;;;;;4950010;28;20035;-62
2023/04/10 06:14:18;;;;;;;22.00;13.43;;;4.40;77.40;;;;;;4950023;28;20130;-62
2023/04/10 06:16:44;;;;;;;22.15;13.13;;;4.50;77.60;;;;;;4950053;28;20557;-63
2023/04/10 06:19:10;;;;;;;22.25;12.93;;;4.60;77.60;;;;;;4951007;28;20039;-60
2023/04/10 06:21:36;;;;;;;21.00;13.70;;;4.60;77.60;;;;;;4953099;28;20032;-62
2023/04/10 06:24:01;;;;;;;22.25;13.85;;;4.70;77.70;;;;;;4953525;28;20459;-61
2023/04/10 06:26:27;;;;;;;23.83;13.80;;;4.80;77.60;;;;;;4950681;28;20490;-61
2023/04/10 06:28:53;;;;;;;21.50;13.85;;;4.80;77.90;;;;;;4952453;28;20051;-63
2023/04/10 06:31:20;;;;;;;21.75;13.60;;;4.90;77.90;;;;;;4940029;28;20049;-60
2023/04/10 06:33:47;;;;;;;21.42;14.27;;;4.90;78.10;;;;;;4952937;28;20067;-61
2023/04/10 06:36:12;;;;;;;22.75;14.23;;;5.00;78.20;;;;;;4954619;28;20050;-60
2023/04/10 06:38:38;;;;;;;18.42;12.50;;;5.10;78.40;;;;;;4954355;28;21715;-62
2023/04/10 06:41:05;;;;;;;19.48;12.20;;;5.20;78.40;;;;;;4953435;28;20070;-62
2023/04/10 06:43:33;;;;;;;18.17;11.68;;;5.20;78.30;;;;;;4954654;28;20603;-62
2023/04/10 06:45:59;;;;;;;18.10;11.45;;;5.30;78.50;;;;;;4958258;28;20340;-61
2023/04/10 06:48:25;;;;;;;17.50;11.35;;;5.40;78.20;;;;;;4951308;28;20141;-63
2023/04/10 06:50:50;;;;;;;17.40;11.38;;;5.50;78.30;;;;;;4952746;28;20500;-61
2023/04/10 06:53:16;;;;;;;17.27;11.65;;;5.60;78.20;;;;;;4953480;28;20046;-62
2023/04/10 06:55:41;;;;;;;16.95;11.10;;;5.60;78.00;;;;;;4953857;28;20041;-63
2023/04/10 06:58:07;;;;;;;16.65;11.10;;;5.70;77.90;;;;;;4954367;28;20062;-62
2023/04/10 07:00:32;;;;;;;15.38;10.63;;;5.80;77.80;;;;;;4953592;28;20094;-61
2023/04/10 07:02:58;;;;;;;17.40;11.55;;;5.90;78.00;;;;;;4950328;28;20050;-60
2023/04/10 07:05:23;;;;;;;16.35;11.75;;;6.00;78.00;;;;;;4954226;28;20498;-62
2023/04/10 07:07:49;;;;;;;15.32;10.57;;;6.10;77.90;;;;;;4954245;28;20487;-63
2023/04/10 07:10:15;;;;;;;17.60;11.52;;;6.10;77.70;;;;;;4953548;28;20043;-62
2023/04/10 07:12:42;;;;;;;16.05;11.02;;;6.20;77.80;;;;;;4951793;28;20569;-63
2023/04/10 07:15:08;;;;;;;15.00;10.15;;;6.30;77.80;;;;;;4951298;28;20047;-64
2023/04/10 07:17:33;;;;;;;12.43;8.85;;;6.40;77.50;;;;;;4954330;28;20067;-64
2023/04/10 07:19:59;;;;;;;14.55;8.73;;;6.60;77.30;;;;;;4956744;28;20067;-62
2023/04/10 07:22:25;;;;;;;12.35;9.00;;;6.70;77.00;;;;;;4956708;28;20036;-60
2023/04/10 07:24:51;;;;;;;11.23;8.40;;;6.70;76.60;;;;;;4961533;28;20034;-64
2023/04/10 07:27:17;;;;;;;11.68;8.50;;;6.80;76.40;;;;;;4959144;28;20058;-62
2023/04/10 07:29:42;;;;;;;12.20;7.90;;;6.90;76.00;;;;;;4954924;28;20067;-64
2023/04/10 07:32:08;;;;;;;11.70;8.27;;;7.00;75.70;;;;;;4960889;28;20411;-64
2023/04/10 07:34:33;;;;;;;11.88;8.73;;;7.10;75.60;;;;;;4958212;28;20379;-67
2023/04/10 07:36:59;;;;;;;12.18;8.93;;;7.20;75.60;;;;;;4960387;28;20035;-63
2023/04/10 07:39:25;;;;;;;10.77;8.10;;;7.30;75.60;;;;;;4960052;28;20038;-64
2023/04/10 07:41:53;;;;;;;12.40;9.00;;;7.30;75.30;;;;;;4961490;28;20515;-62
2023/04/10 07:44:19;;;;;;;11.82;9.05;;;7.40;75.10;;;;;;4959381;28;20043;-63
2023/04/10 07:46:44;;;;;;;11.98;9.13;;;7.50;74.90;;;;;;4960227;28;20042;-62
2023/04/10 07:49:11;;;;;;;12.48;8.82;;;7.60;74.90;;;;;;4957966;28;20038;-63
2023/04/10 07:51:36;;;;;;;13.45;9.60;;;7.60;74.70;;;;;;4961361;28;20043;-64
2023/04/10 07:54:03;;;;;;;12.50;9.00;;;7.70;74.40;;;;;;4961104;28;20385;-63
2023/04/10 07:56:31;;;;;;;12.27;8.50;;;7.80;74.30;;;;;;4960356;28;20150;-63
2023/04/10 07:59:00;;;;;;;12.70;9.20;;;7.80;74.20;;;;;;4961091;28;20588;-64
2023/04/10 08:01:27;;;;;;;12.00;8.85;;;7.90;74.10;;;;;;4961060;28;20126;-63
2023/04/10 08:03:54;;;;;;;11.60;8.68;;;8.00;73.70;;;;;;4958401;28;20069;-63
2023/04/10 08:06:19;;;;;;;11.27;8.57;;;8.00;73.40;;;;;;4961302;28;20039;-59
2023/04/10 08:08:45;;;;;;;11.50;8.50;;;8.10;73.30;;;;;;4957293;28;20054;-60
2023/04/10 08:11:31;;;;;;;10.75;7.80;;;8.10;73.10;;;;;;4959912;28;20414;-60
2023/04/10 08:14:01;;;;;;;12.98;9.13;;;8.20;73.10;;;;;;4958103;28;20507;-61
2023/04/10 08:16:29;;;;;;;12.13;8.82;;;8.30;73.10;;;;;;4960113;28;20589;-61
2023/04/10 08:18:56;;;;;;;12.20;8.70;;;8.40;73.00;;;;;;4960642;28;20460;-62
2023/04/10 08:21:23;;;;;;;12.13;8.90;;;8.40;72.50;;;;;;4961912;28;20034;-62
2023/04/10 08:23:57;;;;;;;10.70;8.35;;;8.50;72.70;;;;;;4961897;28;20077;-63
2023/04/10 08:26:23;;;;;;;12.07;8.50;;;8.60;72.80;;;;;;4961251;28;20121;-61
2023/04/10 08:28:51;;;;;;;11.77;8.90;;;8.70;72.80;;;;;;4960955;28;20053;-63
2023/04/10 08:31:18;;;;;;;11.50;8.55;;;8.80;72.50;;;;;;4961575;28;20034;-60
2023/04/10 08:33:44;;;;;;;10.63;8.50;;;8.80;72.30;;;;;;4959618;28;20097;-60
2023/04/10 08:36:11;;;;;;;11.27;8.40;;;8.90;72.10;;;;;;4962498;28;20035;-62
2023/04/10 08:38:40;;;;;;;10.93;8.32;;;9.00;72.00;;;;;;4960151;28;20049;-62
2023/04/10 08:41:06;;;;;;;9.52;7.55;;;9.10;71.80;;;;;;4960729;28;20038;-61
2023/04/10 08:43:33;;;;;;;13.02;8.75;;;9.20;71.60;;;;;;4954861;28;20039;-62
2023/04/10 08:46:00;;;;;;;11.85;8.93;;;9.30;71.50;;;;;;4962611;28;20043;-62
2023/04/10 08:48:34;;;;;;;10.27;7.72;;;9.40;71.10;;;;;;4960518;28;20411;-60
2023/04/10 08:51:02;;;;;;;10.55;7.93;;;9.50;70.90;;;;;;4961195;28;20155;-63
2023/04/10 08:53:30;;;;;;;9.60;7.43;;;9.50;70.90;;;;;;4961006;28;20062;-61
2023/04/10 08:55:56;;;;;;;10.70;7.95;;;9.60;70.70;;;;;;4961223;28;20039;-62
2023/04/10 08:58:23;;;;;;;11.63;8.48;;;9.70;70.60;;;;;;4961809;28;20047;-63
2023/04/10 09:00:50;;;;;;;10.85;8.43;;;9.80;70.20;;;;;;4960105;28;20465;-63
2023/04/10 09:03:16;;;;;;;9.68;7.60;;;9.90;69.90;;;;;;4959377;28;20039;-63
2023/04/10 09:05:42;;;;;;;9.43;7.20;;;10.00;70.00;;;;;;4959851;28;20473;-62
2023/04/10 09:08:09;;;;;;;9.15;7.10;;;10.10;70.10;;;;;;4959263;28;20075;-62
2023/04/10 09:10:35;;;;;;;8.43;6.90;;;10.20;70.00;;;;;;4959135;28;20410;-64
2023/04/10 09:13:01;;;;;;;9.70;7.05;;;10.30;69.60;;;;;;4960542;28;20635;-63
2023/04/10 09:15:26;;;;;;;9.25;7.07;;;10.40;69.50;;;;;;4958219;28;20097;-62
2023/04/10 09:17:56;;;;;;;9.18;6.43;;;10.60;69.30;;;;;;4958339;28;20046;-61
2023/04/10 09:20:23;;;;;;;8.63;6.93;;;10.70;69.20;;;;;;4952908;28;20041;-62
2023/04/10 09:22:50;;;;;;;8.98;7.32;;;10.80;69.00;;;;;;4956435;28;20047;-61
2023/04/10 09:25:30;;;;;;;8.30;6.38;;;10.90;68.80;;;;;;4956429;28;20039;-63
2023/04/10 09:28:08;;;;;;;7.28;6.00;;;11.00;68.30;;;;;;4954544;28;21890;-62
2023/04/10 09:30:41;;;;;;;6.88;5.93;;;11.10;68.30;;;;;;4952629;28;20503;-63
2023/04/10 09:33:36;;;;;;;7.32;6.00;;;11.30;67.60;;;;;;4957889;28;20040;-62
2023/04/10 09:36:02;;;;;;;7.05;6.05;;;11.40;66.40;;;;;;4937508;28;20446;-62
2023/04/10 09:38:29;;;;;;;7.72;6.30;;;11.50;67.10;;;;;;4951872;28;20047;-62
2023/04/10 09:41:05;;;;;;;8.57;6.10;;;11.60;66.80;;;;;;4957785;28;20066;-62
2023/04/10 09:43:31;;;;;;;6.07;5.38;;;11.70;65.80;;;;;;4958476;28;20038;-61
2023/04/10 09:45:57;;;;;;;5.68;4.72;;;11.80;66.30;;;;;;4954023;28;20312;-63
2023/04/10 09:48:24;;;;;;;6.53;5.32;;;11.90;66.30;;;;;;4958407;28;20053;-63
2023/04/10 09:50:50;;;;;;;5.40;4.45;;;12.10;65.70;;;;;;4958956;28;20447;-64
2023/04/10 09:53:18;;;;;;;5.65;4.50;;;12.20;65.50;;;;;;4955155;28;20101;-64
2023/04/10 09:55:48;;;;;;;5.22;4.60;;;12.30;64.70;;;;;;4958484;28;20049;-64
2023/04/10 09:58:14;;;;;;;5.07;4.57;;;12.40;64.70;;;;;;4959670;28;20042;-64
2023/04/10 10:00:44;;;;;;;4.57;4.10;;;12.50;64.30;;;;;;4958289;28;20577;-64
2023/04/10 10:03:20;;;;;;;5.72;4.63;;;12.70;63.30;;;;;;4956525;28;20088;-64
2023/04/10 10:05:48;;;;;;;4.45;4.05;;;12.80;62.70;;;;;;4958603;28;20039;-63
2023/04/10 10:08:15;;;;;;;4.70;4.03;;;12.90;63.30;;;;;;4958363;28;20060;-64
2023/04/10 10:10:47;;;;;;;3.88;3.45;;;13.00;63.00;;;;;;4957454;28;20062;-64
2023/04/10 10:13:23;;;;;;;4.28;3.55;;;13.10;62.30;;;;;;4958701;28;20049;-64
2023/04/10 10:16:03;;;;;;;4.05;3.65;;;13.30;61.90;;;;;;4958835;28;20959;-64
2023/04/10 10:18:46;;;;;;;3.92;3.53;;;13.40;61.70;;;;;;4956774;28;20054;-64
2023/04/10 10:21:13;;;;;;;3.60;3.30;;;13.60;61.20;;;;;;4959473;28;20034;-64
2023/04/10 10:23:40;;;;;;;3.40;3.10;;;13.70;61.30;;;;;;4958717;28;20042;-64
2023/04/10 10:26:08;;;;;;;3.83;3.30;;;13.80;60.90;;;;;;4957871;28;20035;-64
2023/04/10 10:28:34;;;;;;;3.38;3.08;;;13.90;60.40;;;;;;4956161;28;20047;-64
2023/04/10 10:31:02;;;;;;;3.20;2.92;;;14.00;59.70;;;;;;4957463;28;20035;-64
2023/04/10 10:33:29;;;;;;;3.13;2.83;;;14.10;58.60;;;;;;4959444;28;20381;-64
2023/04/10 10:36:03;;;;;;;2.63;2.42;;;14.20;58.60;;;;;;4959971;28;20031;-63
2023/04/10 10:38:30;;;;;;;2.55;2.35;;;14.30;57.60;;;;;;4958944;28;20035;-64
2023/04/10 10:41:16;;;;;;;2.25;2.05;;;14.40;57.80;;;;;;4959672;28;20097;-64
2023/04/10 10:44:15;;;;;;;2.40;2.20;;;14.50;56.10;;;;;;4958586;28;20074;-64
2023/04/10 10:46:47;;;;;;;2.28;2.08;;;14.50;56.00;;;;;;4957855;28;20469;-64
2023/04/10 10:49:13;;;;;;;2.05;1.90;;;14.60;57.00;;;;;;4959097;28;20463;-64
2023/04/10 10:51:49;;;;;;;1.40;1.30;;;14.70;56.70;;;;;;4958413;28;20098;-64
2023/04/10 10:54:34;;;;;;;1.30;1.20;;;14.80;55.20;;;;;;4957956;28;20031;-65
2023/04/10 10:57:01;;;;;;;1.30;1.20;;;15.00;53.70;;;;;;4959714;28;20051;-64
2023/04/10 10:59:45;;;;;;;1.23;1.13;;;15.10;54.60;;;;;;4961725;28;20047;-64
2023/04/10 11:02:17;;;;;;;1.38;1.13;;;15.20;52.50;;;;;;4961990;28;20050;-64
2023/04/10 11:04:44;;;;;;;1.10;1.00;;;15.20;53.40;;;;;;4962868;28;20039;-64
2023/04/10 11:07:11;;;;;;;1.13;1.10;;;15.30;53.60;;;;;;4961399;28;20034;-64
2023/04/10 11:09:50;;;;;;;1.35;1.25;;;15.40;53.30;;;;;;4962185;28;20411;-64
2023/04/10 11:12:21;;;;;;;1.10;1.00;;;15.50;51.90;;;;;;4959131;28;20027;-63
2023/04/10 11:14:59;;;;;;;0.90;0.90;;;15.60;51.90;;;;;;4959166;28;20043;-64
2023/04/10 11:17:47;;;;;;;1.17;1.10;;;15.70;50.90;;;;;;4961229;28;20332;-63
2023/04/10 11:20:13;;;;;;;1.00;0.93;;;15.70;50.50;;;;;;4961876;28;20102;-63
2023/04/10 11:23:10;;;;;;;0.93;0.93;;;15.80;51.50;;;;;;4959726;28;20507;-64
2023/04/10 11:25:52;;;;;;;0.90;0.88;;;15.90;50.20;;;;;;4961872;28;20031;-64
2023/04/10 11:28:38;;;;;;;0.90;0.90;;;16.00;49.60;;;;;;4959579;28;20185;-64
2023/04/10 11:31:20;;;;;;;;;;;16.00;49.00;;;;;;4961475;28;20407;-64
2023/04/10 11:33:59;;;;;;;0.90;0.73;;;16.10;51.80;;;;;;4962109;28;19925;-64
2023/04/10 11:36:26;;;;;;;0.98;0.98;;;16.10;51.00;;;;;;4960725;28;20031;-63
2023/04/10 11:38:57;;;;;;;0.77;0.77;;;16.20;50.60;;;;;;4960369;28;20125;-64
2023/04/10 11:41:29;;;;;;;0.75;0.70;;;16.30;49.50;;;;;;4961927;28;20125;-63
2023/04/10 11:43:55;;;;;;;0.90;0.80;;;16.40;48.70;;;;;;4959939;28;20049;-64
2023/04/10 11:46:21;;;;;;;0.60;0.60;;;16.40;49.30;;;;;;4961707;28;20510;-63
2023/04/10 11:48:47;;;;;;;0.70;0.70;;;16.50;48.40;;;;;;4959563;28;20078;-64
2023/04/10 11:51:13;;;;;;;1.05;0.98;;;16.50;48.60;;;;;;4961632;28;20067;-63
2023/04/10 11:53:40;;;;;;;0.98;0.70;;;16.60;48.40;;;;;;4961998;28;20031;-63
2023/04/10 11:56:14;;;;;;;1.08;0.70;;;16.70;48.30;;;;;;4962218;28;20102;-63
2023/04/10 11:58:40;;;;;;;0.90;0.73;;;16.70;47.00;;;;;;4960967;28;20137;-64
2023/04/10 12:01:06;;;;;;;0.65;0.65;;;16.70;47.30;;;;;;4962934;28;20182;-64
2023/04/10 12:03:36;;;;;;;0.70;0.70;;;16.70;46.80;;;;;;4960001;28;20506;-64
2023/04/10 12:06:03;;;;;;;0.90;0.90;;;16.80;46.00;;;;;;4961653;28;20046;-64
2023/04/10 12:08:37;;;;;;;0.77;0.70;;;16.80;46.00;;;;;;4960092;28;20070;-64
2023/04/10 12:11:03;;;;;;;0.65;0.65;;;16.80;44.20;;;;;;4961009;28;20036;-63
2023/04/10 12:13:29;;;;;;;0.63;0.63;;;16.70;45.00;;;;;;4960834;28;20541;-64
2023/04/10 12:16:00;;;;;;;0.55;0.55;;;16.80;46.00;;;;;;4961280;28;20455;-62
2023/04/10 12:18:29;;;;;;;0.55;0.50;;;16.70;45.60;;;;;;4960825;28;20030;-63
2023/04/10 12:20:57;;;;;;;0.40;0.40;;;16.70;45.30;;;;;;4960538;28;20058;-64
2023/04/10 12:23:24;;;;;;;0.52;0.52;;;16.80;45.50;;;;;;4962350;28;20657;-64
2023/04/10 12:25:50;;;;;;;0.40;0.40;;;16.90;45.00;;;;;;4960963;28;20049;-64
2023/04/10 12:28:21;;;;;;;0.50;0.50;;;16.80;45.00;;;;;;4961681;28;20165;-63
2023/04/10 12:30:49;;;;;;;0.60;0.47;;;16.90;44.90;;;;;;4959954;28;20054;-64
2023/04/10 12:33:20;;;;;;;0.70;0.60;;;16.90;44.90;;;;;;4959705;28;20066;-64
2023/04/10 12:35:46;;;;;;;0.80;0.80;;;16.90;44.50;;;;;;4962668;28;20260;-63
2023/04/10 12:38:11;;;;;;;0.73;0.40;;;16.80;44.70;;;;;;4962121;28;20039;-63
2023/04/10 12:40:39;;;;;;;0.65;0.40;;;16.90;44.60;;;;;;4961458;28;20608;-63
2023/04/10 12:43:04;;;;;;;0.50;0.50;;;16.90;44.20;;;;;;4961506;28;20042;-64
2023/04/10 12:45:45;;;;;;;0.57;0.57;;;16.90;44.50;;;;;;4961579;28;20041;-64
2023/04/10 12:48:11;;;;;;;0.38;0.38;;;16.90;43.20;;;;;;4959595;28;20051;-64